sensor_id;sensor_type;location;lat;lon;timestamp;pressure;altitude;pressure_sealevel;temperature;humidity
15884;BME280;8040;50.254;10.960;2022-10-16T00:01:50;98039.25;;;16.77;100.00
15884;BME280;8040;50.254;10.960;2022-10-16T00:04:34;98040.41;;;16.76;100.00
15884;BME280;8040;50.254;10.960;2022-10-16T00:07:18;98041.34;;;16.80;100.00
15884;BME280;8040;50.254;10.960;2022-10-16T00:10:02;98035.41;;;16.78;100.00
15884;BME280;8040;50.254;10.960;2022-10-16T00:12:46;98042.00;;;16.77;100.00
15884;BME280;8040;50.254;10.960;2022-10-16T00:15:33;98041.34;;;16.80;100.00
15884;BME280;8040;50.254;10.960;2022-10-16T00:18:17;98054.31;;;16.83;100.00
15884;BME280;8040;50.254;10.960;2022-10-16T00:21:02;98048.06;;;16.83;100.00
15884;BME280;8040;50.254;10.960;2022-10-16T00:23:47;98040.19;;;16.81;100.00
15884;BME280;8040;50.254;10.960;2022-10-16T00:26:34;98041.13;;;16.73;100.00
15884;BME280;8040;50.254;10.960;2022-10-16T00:29:18;98035.97;;;16.72;100.00
15884;BME280;8040;50.254;10.960;2022-10-16T00:32:02;98041.13;;;16.73;100.00
15884;BME280;8040;50.254;10.960;2022-10-16T00:34:46;98048.19;;;16.74;100.00
15884;BME280;8040;50.254;10.960;2022-10-16T00:37:30;98042.72;;;16.74;100.00
15884;BME280;8040;50.254;10.960;2022-10-16T00:40:13;98035.97;;;16.72;100.00
15884;BME280;8040;50.254;10.960;2022-10-16T00:42:57;98048.53;;;16.73;100.00
15884;BME280;8040;50.254;10.960;2022-10-16T00:45:41;98062.44;;;16.68;100.00
15884;BME280;8040;50.254;10.960;2022-10-16T00:48:25;98060.50;;;16.68;100.00
15884;BME280;8040;50.254;10.960;2022-10-16T00:51:09;98059.72;;;16.68;100.00
15884;BME280;8040;50.254;10.960;2022-10-16T00:53:54;98060.50;;;16.68;100.00
15884;BME280;8040;50.254;10.960;2022-10-16T00:56:38;98055.03;;;16.68;100.00
15884;BME280;8040;50.254;10.960;2022-10-16T00:59:24;98067.81;;;16.64;100.00
15884;BME280;8040;50.254;10.960;2022-10-16T01:02:10;98053.66;;;16.62;100.00
15884;BME280;8040;50.254;10.960;2022-10-16T01:04:53;98053.66;;;16.62;100.00
15884;BME280;8040;50.254;10.960;2022-10-16T01:07:45;98050.13;;;16.62;100.00
15884;BME280;8040;50.254;10.960;2022-10-16T01:10:35;98049.34;;;16.61;100.00
15884;BME280;8040;50.254;10.960;2022-10-16T01:13:22;98045.69;;;16.57;100.00
15884;BME280;8040;50.254;10.960;2022-10-16T01:16:13;98043.28;;;16.56;100.00
15884;BME280;8040;50.254;10.960;2022-10-16T01:19:01;98049.44;;;16.53;100.00
15884;BME280;8040;50.254;10.960;2022-10-16T01:21:50;98054.94;;;16.53;100.00
15884;BME280;8040;50.254;10.960;2022-10-16T01:24:39;98046.50;;;16.58;100.00
15884;BME280;8040;50.254;10.960;2022-10-16T01:27:27;98059.16;;;16.62;100.00
15884;BME280;8040;50.254;10.960;2022-10-16T01:33:03;98067.59;;;16.69;100.00
15884;BME280;8040;50.254;10.960;2022-10-16T01:35:55;98058.94;;;16.67;100.00
15884;BME280;8040;50.254;10.960;2022-10-16T01:38:41;98051.38;;;16.64;100.00
15884;BME280;8040;50.254;10.960;2022-10-16T01:41:31;98054.13;;;16.64;100.00
15884;BME280;8040;50.254;10.960;2022-10-16T01:44:18;98067.13;;;16.67;100.00
15884;BME280;8040;50.254;10.960;2022-10-16T01:47:04;98070.66;;;16.68;100.00
15884;BME280;8040;50.254;10.960;2022-10-16T01:49:49;98074.53;;;16.67;100.00
15884;BME280;8040;50.254;10.960;2022-10-16T01:52:35;98082.44;;;16.68;100.00
15884;BME280;8040;50.254;10.960;2022-10-16T01:55:25;98079.34;;;16.70;100.00
15884;BME280;8040;50.254;10.960;2022-10-16T01:58:12;98081.97;;;16.66;100.00
15884;BME280;8040;50.254;10.960;2022-10-16T02:00:57;98075.59;;;16.62;100.00
15884;BME280;8040;50.254;10.960;2022-10-16T02:03:41;98075.69;;;16.66;100.00
15884;BME280;8040;50.254;10.960;2022-10-16T02:06:26;98080.34;;;16.65;100.00
15884;BME280;8040;50.254;10.960;2022-10-16T02:09:10;98078.44;;;16.66;100.00
15884;BME280;8040;50.254;10.960;2022-10-16T02:11:54;98077.19;;;16.63;100.00
15884;BME280;8040;50.254;10.960;2022-10-16T02:14:38;98061.56;;;16.64;100.00
15884;BME280;8040;50.254;10.960;2022-10-16T02:17:23;98073.66;;;16.63;100.00
15884;BME280;8040;50.254;10.960;2022-10-16T02:20:08;98068.50;;;16.61;100.00
15884;BME280;8040;50.254;10.960;2022-10-16T02:22:51;98065.78;;;16.61;100.00
15884;BME280;8040;50.254;10.960;2022-10-16T02:25:37;98079.47;;;16.61;100.00
15884;BME280;8040;50.254;10.960;2022-10-16T02:28:40;98072.41;;;16.60;100.00
15884;BME280;8040;50.254;10.960;2022-10-16T02:31:27;98080.13;;;16.58;100.00
15884;BME280;8040;50.254;10.960;2022-10-16T02:34:12;98084.84;;;16.58;100.00
15884;BME280;8040;50.254;10.960;2022-10-16T02:36:57;98077.16;;;16.51;100.00
15884;BME280;8040;50.254;10.960;2022-10-16T02:39:41;98085.38;;;16.51;100.00
15884;BME280;8040;50.254;10.960;2022-10-16T02:42:31;98092.81;;;16.51;100.00
15884;BME280;8040;50.254;10.960;2022-10-16T02:45:16;98099.06;;;16.51;100.00
15884;BME280;8040;50.254;10.960;2022-10-16T02:48:00;98113.09;;;16.50;100.00
15884;BME280;8040;50.254;10.960;2022-10-16T02:50:44;98106.84;;;16.49;100.00
15884;BME280;8040;50.254;10.960;2022-10-16T02:53:28;98097.03;;;16.48;100.00
15884;BME280;8040;50.254;10.960;2022-10-16T02:56:12;98093.94;;;16.50;100.00
15884;BME280;8040;50.254;10.960;2022-10-16T02:58:56;98085.28;;;16.48;100.00
15884;BME280;8040;50.254;10.960;2022-10-16T03:01:40;98090.75;;;16.48;100.00
15884;BME280;8040;50.254;10.960;2022-10-16T03:04:24;98097.03;;;16.48;100.00
15884;BME280;8040;50.254;10.960;2022-10-16T03:07:08;98098.63;;;16.49;100.00
15884;BME280;8040;50.254;10.960;2022-10-16T03:09:52;98083.56;;;16.43;100.00
15884;BME280;8040;50.254;10.960;2022-10-16T03:12:36;98093.81;;;16.46;100.00
15884;BME280;8040;50.254;10.960;2022-10-16T03:15:20;98102.03;;;16.46;100.00
15884;BME280;8040;50.254;10.960;2022-10-16T03:18:04;98103.88;;;16.42;100.00
15884;BME280;8040;50.254;10.960;2022-10-16T03:20:48;98107.72;;;16.41;100.00
15884;BME280;8040;50.254;10.960;2022-10-16T03:23:32;98112.88;;;16.43;100.00
15884;BME280;8040;50.254;10.960;2022-10-16T03:26:16;98110.47;;;16.41;100.00
15884;BME280;8040;50.254;10.960;2022-10-16T03:29:00;98097.59;;;16.42;100.00
15884;BME280;8040;50.254;10.960;2022-10-16T03:31:44;98099.19;;;16.43;100.00
15884;BME280;8040;50.254;10.960;2022-10-16T03:34:28;98111.38;;;16.45;100.00
15884;BME280;8040;50.254;10.960;2022-10-16T03:37:12;98115.72;;;16.46;100.00
15884;BME280;8040;50.254;10.960;2022-10-16T03:39:56;98118.94;;;16.48;100.00
15884;BME280;8040;50.254;10.960;2022-10-16T03:42:40;98125.19;;;16.49;100.00
15884;BME280;8040;50.254;10.960;2022-10-16T03:45:24;98127.59;;;16.50;100.00
15884;BME280;8040;50.254;10.960;2022-10-16T03:48:08;98121.69;;;16.48;100.00
15884;BME280;8040;50.254;10.960;2022-10-16T03:50:52;98123.16;;;16.46;100.00
15884;BME280;8040;50.254;10.960;2022-10-16T03:53:36;98121.19;;;16.46;100.00
15884;BME280;8040;50.254;10.960;2022-10-16T03:56:20;98118.94;;;16.48;100.00
15884;BME280;8040;50.254;10.960;2022-10-16T03:59:04;98119.72;;;16.49;100.00
15884;BME280;8040;50.254;10.960;2022-10-16T04:01:47;98125.69;;;16.51;100.00
15884;BME280;8040;50.254;10.960;2022-10-16T04:04:31;98123.72;;;16.51;100.00
15884;BME280;8040;50.254;10.960;2022-10-16T04:07:15;98124.06;;;16.50;100.00
15884;BME280;8040;50.254;10.960;2022-10-16T04:09:59;98134.22;;;16.49;100.00
15884;BME280;8040;50.254;10.960;2022-10-16T04:12:43;98138.56;;;16.50;100.00
15884;BME280;8040;50.254;10.960;2022-10-16T04:15:27;98128.25;;;16.47;100.00
15884;BME280;8040;50.254;10.960;2022-10-16T04:18:11;98132.84;;;16.43;100.00
15884;BME280;8040;50.254;10.960;2022-10-16T04:20:55;98134.31;;;16.41;100.00
15884;BME280;8040;50.254;10.960;2022-10-16T04:23:39;98128.84;;;16.41;100.00
15884;BME280;8040;50.254;10.960;2022-10-16T04:26:23;98126.22;;;16.44;100.00
15884;BME280;8040;50.254;10.960;2022-10-16T04:29:07;98130.00;;;16.40;100.00
15884;BME280;8040;50.254;10.960;2022-10-16T04:31:51;98134.00;;;16.42;100.00
15884;BME280;8040;50.254;10.960;2022-10-16T04:34:35;98133.19;;;16.42;100.00
15884;BME280;8040;50.254;10.960;2022-10-16T04:37:22;98142.66;;;16.44;100.00
15884;BME280;8040;50.254;10.960;2022-10-16T04:40:06;98150.53;;;16.46;100.00
15884;BME280;8040;50.254;10.960;2022-10-16T04:42:50;98149.72;;;16.45;100.00
15884;BME280;8040;50.254;10.960;2022-10-16T04:45:34;98156.78;;;16.46;100.00
15884;BME280;8040;50.254;10.960;2022-10-16T04:48:18;98143.91;;;16.47;100.00
15884;BME280;8040;50.254;10.960;2022-10-16T04:51:02;98145.59;;;16.39;100.00
15884;BME280;8040;50.254;10.960;2022-10-16T04:53:46;98151.53;;;16.41;100.00
15884;BME280;8040;50.254;10.960;2022-10-16T04:56:30;98151.19;;;16.43;100.00
15884;BME280;8040;50.254;10.960;2022-10-16T04:59:14;98153.59;;;16.44;100.00
15884;BME280;8040;50.254;10.960;2022-10-16T05:01:58;98148.78;;;16.41;100.00
15884;BME280;8040;50.254;10.960;2022-10-16T05:04:42;98159.41;;;16.43;100.00
15884;BME280;8040;50.254;10.960;2022-10-16T05:07:26;98144.19;;;16.33;100.00
15884;BME280;8040;50.254;10.960;2022-10-16T05:10:10;98150.75;;;16.41;100.00
15884;BME280;8040;50.254;10.960;2022-10-16T05:12:54;98163.75;;;16.44;100.00
15884;BME280;8040;50.254;10.960;2022-10-16T05:15:38;98161.81;;;16.44;100.00
15884;BME280;8040;50.254;10.960;2022-10-16T05:18:22;98171.19;;;16.43;100.00
15884;BME280;8040;50.254;10.960;2022-10-16T05:21:06;98175.06;;;16.42;100.00
15884;BME280;8040;50.254;10.960;2022-10-16T05:23:50;98171.19;;;16.43;100.00
15884;BME280;8040;50.254;10.960;2022-10-16T05:26:34;98164.88;;;16.43;100.00
15884;BME280;8040;50.254;10.960;2022-10-16T05:29:18;98166.84;;;16.42;100.00
15884;BME280;8040;50.254;10.960;2022-10-16T05:32:02;98173.09;;;16.43;100.00
15884;BME280;8040;50.254;10.960;2022-10-16T05:34:46;98179.59;;;16.38;100.00
15884;BME280;8040;50.254;10.960;2022-10-16T05:37:30;98185.06;;;16.38;100.00
15884;BME280;8040;50.254;10.960;2022-10-16T05:40:15;98173.78;;;16.40;100.00
15884;BME280;8040;50.254;10.960;2022-10-16T05:43:00;98162.47;;;16.41;100.00
15884;BME280;8040;50.254;10.960;2022-10-16T05:45:44;98166.22;;;16.37;100.00
15884;BME280;8040;50.254;10.960;2022-10-16T05:48:28;98172.50;;;16.37;100.00
15884;BME280;8040;50.254;10.960;2022-10-16T05:51:13;98174.75;;;16.35;100.00
15884;BME280;8040;50.254;10.960;2022-10-16T05:53:57;98176.25;;;16.33;100.00
15884;BME280;8040;50.254;10.960;2022-10-16T05:56:41;98172.25;;;16.30;100.00
15884;BME280;8040;50.254;10.960;2022-10-16T05:59:25;98190.94;;;16.28;100.00
15884;BME280;8040;50.254;10.960;2022-10-16T06:02:12;98185.47;;;16.28;100.00
15884;BME280;8040;50.254;10.960;2022-10-16T06:04:56;98194.03;;;16.27;100.00
15884;BME280;8040;50.254;10.960;2022-10-16T06:07:40;98184.69;;;16.28;100.00
15884;BME280;8040;50.254;10.960;2022-10-16T06:10:24;98203.84;;;16.28;100.00
15884;BME280;8040;50.254;10.960;2022-10-16T06:13:08;98212.84;;;16.28;100.00
15884;BME280;8040;50.254;10.960;2022-10-16T06:15:52;98207.34;;;16.28;100.00
15884;BME280;8040;50.254;10.960;2022-10-16T06:18:36;98209.09;;;16.33;100.00
15884;BME280;8040;50.254;10.960;2022-10-16T06:21:22;98219.03;;;16.37;100.00
15884;BME280;8040;50.254;10.960;2022-10-16T06:24:06;98220.47;;;16.43;100.00
15884;BME280;8040;50.254;10.960;2022-10-16T06:26:50;98218.28;;;16.49;100.00
15884;BME280;8040;50.254;10.960;2022-10-16T06:29:34;98225.38;;;16.50;100.00
15884;BME280;8040;50.254;10.960;2022-10-16T06:32:18;98236.81;;;16.52;100.00
15884;BME280;8040;50.254;10.960;2022-10-16T06:35:02;98234.84;;;16.52;100.00
15884;BME280;8040;50.254;10.960;2022-10-16T06:37:45;98238.84;;;16.55;100.00
15884;BME280;8040;50.254;10.960;2022-10-16T06:40:29;98235.09;;;16.59;100.00
15884;BME280;8040;50.254;10.960;2022-10-16T06:43:13;98230.09;;;16.61;100.00
15884;BME280;8040;50.254;10.960;2022-10-16T06:45:58;98234.44;;;16.62;100.00
15884;BME280;8040;50.254;10.960;2022-10-16T06:48:41;98245.50;;;16.66;100.00
15884;BME280;8040;50.254;10.960;2022-10-16T06:51:25;98244.38;;;16.67;100.00
15884;BME280;8040;50.254;10.960;2022-10-16T06:54:09;98244.16;;;16.72;100.00
15884;BME280;8040;50.254;10.960;2022-10-16T06:56:54;98248.16;;;16.74;100.00
15884;BME280;8040;50.254;10.960;2022-10-16T06:59:38;98252.16;;;16.77;100.00
15884;BME280;8040;50.254;10.960;2022-10-16T07:02:22;98256.50;;;16.78;100.00
15884;BME280;8040;50.254;10.960;2022-10-16T07:05:06;98259.69;;;16.80;100.00
15884;BME280;8040;50.254;10.960;2022-10-16T07:07:50;98264.16;;;16.84;100.00
15884;BME280;8040;50.254;10.960;2022-10-16T07:10:34;98265.56;;;16.90;100.00
15884;BME280;8040;50.254;10.960;2022-10-16T07:13:18;98265.31;;;16.95;100.00
15884;BME280;8040;50.254;10.960;2022-10-16T07:16:06;98273.66;;;16.99;100.00
15884;BME280;8040;50.254;10.960;2022-10-16T07:18:50;98275.72;;;17.02;100.00
15884;BME280;8040;50.254;10.960;2022-10-16T07:21:36;98283.59;;;17.03;100.00
15884;BME280;8040;50.254;10.960;2022-10-16T07:24:20;98295.47;;;17.07;100.00
15884;BME280;8040;50.254;10.960;2022-10-16T07:27:04;98292.06;;;17.10;100.00
15884;BME280;8040;50.254;10.960;2022-10-16T07:29:48;98289.31;;;17.10;100.00
15884;BME280;8040;50.254;10.960;2022-10-16T07:32:32;98303.59;;;17.16;100.00
15884;BME280;8040;50.254;10.960;2022-10-16T07:35:15;98312.53;;;17.25;100.00
15884;BME280;8040;50.254;10.960;2022-10-16T07:37:59;98314.81;;;17.35;100.00
15884;BME280;8040;50.254;10.960;2022-10-16T07:40:44;98304.47;;;17.40;100.00
15884;BME280;8040;50.254;10.960;2022-10-16T07:43:28;98301.63;;;17.49;100.00
15884;BME280;8040;50.254;10.960;2022-10-16T07:46:12;98306.19;;;17.57;100.00
15884;BME280;8040;50.254;10.960;2022-10-16T07:48:57;98313.16;;;17.66;100.00
15884;BME280;8040;50.254;10.960;2022-10-16T07:51:40;98322.19;;;17.79;99.76
15884;BME280;8040;50.254;10.960;2022-10-16T07:54:25;98324.09;;;17.90;99.11
15884;BME280;8040;50.254;10.960;2022-10-16T07:57:08;98328.66;;;17.98;97.86
15884;BME280;8040;50.254;10.960;2022-10-16T07:59:52;98327.63;;;18.03;97.27
15884;BME280;8040;50.254;10.960;2022-10-16T08:02:36;98318.94;;;18.01;96.79
15884;BME280;8040;50.254;10.960;2022-10-16T08:05:20;98319.28;;;17.99;96.84
15884;BME280;8040;50.254;10.960;2022-10-16T08:08:04;98322.13;;;18.03;97.51
15884;BME280;8040;50.254;10.960;2022-10-16T08:10:48;98327.38;;;18.08;97.27
15884;BME280;8040;50.254;10.960;2022-10-16T08:13:33;98332.88;;;18.08;97.12
15884;BME280;8040;50.254;10.960;2022-10-16T08:16:17;98341.69;;;18.13;96.71
15884;BME280;8040;50.254;10.960;2022-10-16T08:19:01;98336.75;;;18.19;96.55
15884;BME280;8040;50.254;10.960;2022-10-16T08:21:49;98347.16;;;18.25;96.28
15884;BME280;8040;50.254;10.960;2022-10-16T08:24:33;98339.72;;;18.38;96.74
15884;BME280;8040;50.254;10.960;2022-10-16T08:27:18;98350.22;;;18.48;96.06
15884;BME280;8040;50.254;10.960;2022-10-16T08:30:02;98352.84;;;18.56;95.14
15884;BME280;8040;50.254;10.960;2022-10-16T08:32:46;98352.84;;;18.56;94.20
15884;BME280;8040;50.254;10.960;2022-10-16T08:35:33;98354.28;;;18.66;94.42
15884;BME280;8040;50.254;10.960;2022-10-16T08:38:17;98357.13;;;18.69;92.42
15884;BME280;8040;50.254;10.960;2022-10-16T08:44:04;98358.63;;;18.67;90.67
15884;BME280;8040;50.254;10.960;2022-10-16T08:47:00;98370.66;;;18.62;89.87
15884;BME280;8040;50.254;10.960;2022-10-16T08:49:54;98365.84;;;18.59;90.21
15884;BME280;8040;50.254;10.960;2022-10-16T08:52:40;98367.81;;;18.59;90.60
15884;BME280;8040;50.254;10.960;2022-10-16T08:55:29;98356.03;;;18.58;90.43
15884;BME280;8040;50.254;10.960;2022-10-16T08:58:15;98361.50;;;18.58;90.53
15884;BME280;8040;50.254;10.960;2022-10-16T09:01:46;98359.69;;;18.62;90.36
15884;BME280;8040;50.254;10.960;2022-10-16T09:07:27;98366.88;;;18.67;90.29
15884;BME280;8040;50.254;10.960;2022-10-16T09:13:06;98372.72;;;18.65;90.17
15884;BME280;8040;50.254;10.960;2022-10-16T09:18:50;98388.75;;;18.63;89.63
15884;BME280;8040;50.254;10.960;2022-10-16T09:21:38;98392.56;;;18.59;90.02
15884;BME280;8040;50.254;10.960;2022-10-16T09:24:25;98399.31;;;18.61;90.54
15884;BME280;8040;50.254;10.960;2022-10-16T09:27:13;98396.56;;;18.61;90.10
15884;BME280;8040;50.254;10.960;2022-10-16T09:29:58;98395.94;;;18.68;90.48
15884;BME280;8040;50.254;10.960;2022-10-16T09:32:43;98393.78;;;18.73;90.31
15884;BME280;8040;50.254;10.960;2022-10-16T09:35:32;98396.50;;;18.73;89.36
15884;BME280;8040;50.254;10.960;2022-10-16T09:38:23;98401.75;;;18.78;89.89
15884;BME280;8040;50.254;10.960;2022-10-16T09:41:21;98404.91;;;18.92;90.65
15884;BME280;8040;50.254;10.960;2022-10-16T09:44:06;98413.13;;;19.04;90.41
15884;BME280;8040;50.254;10.960;2022-10-16T09:52:36;98407.25;;;19.06;87.25
15884;BME280;8040;50.254;10.960;2022-10-16T09:55:20;98416.41;;;19.10;87.47
15884;BME280;8040;50.254;10.960;2022-10-16T09:58:11;98417.66;;;19.12;87.25
15884;BME280;8040;50.254;10.960;2022-10-16T10:00:56;98423.69;;;19.18;87.04
15884;BME280;8040;50.254;10.960;2022-10-16T10:03:41;98411.69;;;19.22;86.32
15884;BME280;8040;50.254;10.960;2022-10-16T10:06:27;98424.91;;;19.32;86.47
15884;BME280;8040;50.254;10.960;2022-10-16T10:09:22;98422.00;;;19.41;86.00
15884;BME280;8040;50.254;10.960;2022-10-16T10:12:16;98426.09;;;19.47;85.44
15884;BME280;8040;50.254;10.960;2022-10-16T10:15:05;98430.91;;;19.50;85.12
15884;BME280;8040;50.254;10.960;2022-10-16T10:17:51;98420.00;;;19.53;84.21
15884;BME280;8040;50.254;10.960;2022-10-16T10:20:36;98426.03;;;19.59;84.67
15884;BME280;8040;50.254;10.960;2022-10-16T10:23:23;98418.28;;;19.64;84.78
15884;BME280;8040;50.254;10.960;2022-10-16T10:26:11;98425.13;;;19.70;84.28
15884;BME280;8040;50.254;10.960;2022-10-16T10:31:49;98426.22;;;19.97;82.85
15884;BME280;8040;50.254;10.960;2022-10-16T10:37:27;98431.31;;;20.10;81.25
15884;BME280;8040;50.254;10.960;2022-10-16T10:40:36;98431.31;;;20.10;81.21
15884;BME280;8040;50.254;10.960;2022-10-16T10:46:23;98437.03;;;20.05;79.07
15884;BME280;8040;50.254;10.960;2022-10-16T10:54:50;98439.91;;;19.93;79.78
15884;BME280;8040;50.254;10.960;2022-10-16T10:57:42;98444.88;;;19.88;80.22
15884;BME280;8040;50.254;10.960;2022-10-16T11:00:44;98447.38;;;19.77;81.28
15884;BME280;8040;50.254;10.960;2022-10-16T11:09:39;98469.47;;;19.65;84.15
15884;BME280;8040;50.254;10.960;2022-10-16T11:12:29;98484.63;;;19.59;84.75
15884;BME280;8040;50.254;10.960;2022-10-16T11:15:17;98482.56;;;19.56;85.24
15884;BME280;8040;50.254;10.960;2022-10-16T11:18:04;98472.53;;;19.48;86.17
15884;BME280;8040;50.254;10.960;2022-10-16T11:20:51;98486.00;;;19.38;87.21
15884;BME280;8040;50.254;10.960;2022-10-16T11:26:27;98508.66;;;19.07;90.05
15884;BME280;8040;50.254;10.960;2022-10-16T11:29:19;98498.13;;;18.97;92.62
15884;BME280;8040;50.254;10.960;2022-10-16T11:32:14;98481.41;;;18.90;93.36
15884;BME280;8040;50.254;10.960;2022-10-16T11:35:06;98472.97;;;18.83;94.37
15884;BME280;8040;50.254;10.960;2022-10-16T11:37:54;98461.09;;;18.79;95.84
15884;BME280;8040;50.254;10.960;2022-10-16T11:40:40;98468.63;;;18.82;97.13
15884;BME280;8040;50.254;10.960;2022-10-16T11:44:09;98471.81;;;18.84;98.80
15884;BME280;8040;50.254;10.960;2022-10-16T11:46:33;98472.03;;;18.91;98.69
15884;BME280;8040;50.254;10.960;2022-10-16T11:49:19;98473.50;;;19.01;100.00
15884;BME280;8040;50.254;10.960;2022-10-16T11:52:21;98473.81;;;19.11;100.00
15884;BME280;8040;50.254;10.960;2022-10-16T11:58:01;98457.16;;;19.20;99.29
15884;BME280;8040;50.254;10.960;2022-10-16T12:00:47;98460.91;;;19.27;99.81
15884;BME280;8040;50.254;10.960;2022-10-16T12:03:38;98468.06;;;19.28;99.14
15884;BME280;8040;50.254;10.960;2022-10-16T12:09:13;98475.63;;;19.47;99.95
15884;BME280;8040;50.254;10.960;2022-10-16T12:11:59;98471.81;;;19.51;99.89
15884;BME280;8040;50.254;10.960;2022-10-16T12:14:42;98472.00;;;19.58;99.58
15884;BME280;8040;50.254;10.960;2022-10-16T12:17:34;98460.75;;;19.63;99.95
15884;BME280;8040;50.254;10.960;2022-10-16T12:23:05;98469.66;;;19.72;96.18
15884;BME280;8040;50.254;10.960;2022-10-16T12:25:53;98479.50;;;19.73;95.08
15884;BME280;8040;50.254;10.960;2022-10-16T12:28:38;98473.00;;;19.66;95.47
15884;BME280;8040;50.254;10.960;2022-10-16T12:31:23;98469.09;;;19.67;94.87
15884;BME280;8040;50.254;10.960;2022-10-16T12:34:14;98465.09;;;19.64;94.97
15884;BME280;8040;50.254;10.960;2022-10-16T12:37:12;98460.66;;;19.60;95.11
15884;BME280;8040;50.254;10.960;2022-10-16T12:39:57;98453.03;;;19.53;95.08
15884;BME280;8040;50.254;10.960;2022-10-16T12:42:41;98458.44;;;19.50;95.73
15884;BME280;8040;50.254;10.960;2022-10-16T12:45:27;98458.78;;;19.48;95.60
15884;BME280;8040;50.254;10.960;2022-10-16T12:48:18;98462.94;;;19.42;95.51
15884;BME280;8040;50.254;10.960;2022-10-16T12:54:19;98459.53;;;19.33;96.96
15884;BME280;8040;50.254;10.960;2022-10-16T12:59:59;98469.50;;;19.38;97.39
15884;BME280;8040;50.254;10.960;2022-10-16T13:05:58;98466.94;;;19.45;96.49
15884;BME280;8040;50.254;10.960;2022-10-16T13:11:45;98469.94;;;19.40;94.98
15884;BME280;8040;50.254;10.960;2022-10-16T13:23:22;98487.53;;;19.23;96.46
15884;BME280;8040;50.254;10.960;2022-10-16T13:29:05;98488.00;;;19.13;96.44
15884;BME280;8040;50.254;10.960;2022-10-16T13:31:49;98487.00;;;19.06;96.56
15884;BME280;8040;50.254;10.960;2022-10-16T13:34:41;98489.28;;;19.04;97.02
15884;BME280;8040;50.254;10.960;2022-10-16T13:37:26;98483.69;;;19.00;97.64
15884;BME280;8040;50.254;10.960;2022-10-16T13:40:17;98488.28;;;18.96;98.13
15884;BME280;8040;50.254;10.960;2022-10-16T13:43:01;98500.44;;;18.95;99.16
15884;BME280;8040;50.254;10.960;2022-10-16T13:46:00;98486.34;;;18.97;99.52
15884;BME280;8040;50.254;10.960;2022-10-16T13:48:56;98498.59;;;18.99;99.67
15884;BME280;8040;50.254;10.960;2022-10-16T13:51:40;98500.19;;;19.00;99.42
15884;BME280;8040;50.254;10.960;2022-10-16T13:54:24;98515.44;;;18.98;99.51
15884;BME280;8040;50.254;10.960;2022-10-16T13:57:12;98518.88;;;18.95;99.35
15884;BME280;8040;50.254;10.960;2022-10-16T13:59:56;98509.38;;;18.92;99.01
15884;BME280;8040;50.254;10.960;2022-10-16T14:02:40;98500.66;;;18.90;98.74
15884;BME280;8040;50.254;10.960;2022-10-16T14:05:24;98508.91;;;18.90;99.06
15884;BME280;8040;50.254;10.960;2022-10-16T14:08:09;98505.72;;;18.88;99.75
15884;BME280;8040;50.254;10.960;2022-10-16T14:10:55;98505.28;;;18.86;99.66
15884;BME280;8040;50.254;10.960;2022-10-16T14:13:43;98516.94;;;18.83;99.38
15884;BME280;8040;50.254;10.960;2022-10-16T14:16:28;98514.53;;;18.82;99.50
15884;BME280;8040;50.254;10.960;2022-10-16T14:19:15;98518.31;;;18.89;99.92
15884;BME280;8040;50.254;10.960;2022-10-16T14:22:01;98510.75;;;18.98;99.98
15884;BME280;8040;50.254;10.960;2022-10-16T14:24:45;98509.78;;;19.06;99.17
15884;BME280;8040;50.254;10.960;2022-10-16T14:27:33;98514.34;;;19.14;97.83
15884;BME280;8040;50.254;10.960;2022-10-16T14:30:18;98513.66;;;19.17;96.29
15884;BME280;8040;50.254;10.960;2022-10-16T14:33:04;98508.94;;;19.18;95.48
15884;BME280;8040;50.254;10.960;2022-10-16T14:35:58;98520.56;;;19.23;95.42
15884;BME280;8040;50.254;10.960;2022-10-16T14:38:54;98523.75;;;19.25;95.97
15884;BME280;8040;50.254;10.960;2022-10-16T14:41:41;98537.50;;;19.25;96.03
15884;BME280;8040;50.254;10.960;2022-10-16T14:44:31;98544.50;;;19.23;95.51
15884;BME280;8040;50.254;10.960;2022-10-16T14:47:16;98526.84;;;19.24;94.78
15884;BME280;8040;50.254;10.960;2022-10-16T14:50:07;98542.91;;;19.22;94.69
15884;BME280;8040;50.254;10.960;2022-10-16T14:52:52;98546.00;;;19.20;94.49
15884;BME280;8040;50.254;10.960;2022-10-16T14:55:36;98547.13;;;19.19;94.49
15884;BME280;8040;50.254;10.960;2022-10-16T14:58:21;98542.44;;;19.20;94.48
15884;BME280;8040;50.254;10.960;2022-10-16T15:01:06;98547.81;;;19.16;94.12
15884;BME280;8040;50.254;10.960;2022-10-16T15:03:52;98541.75;;;19.11;93.93
15884;BME280;8040;50.254;10.960;2022-10-16T15:06:38;98547.97;;;19.08;93.69
15884;BME280;8040;50.254;10.960;2022-10-16T15:09:22;98543.94;;;19.05;94.10
15884;BME280;8040;50.254;10.960;2022-10-16T15:12:06;98548.53;;;19.01;94.23
15884;BME280;8040;50.254;10.960;2022-10-16T15:14:50;98557.47;;;18.98;94.59
15884;BME280;8040;50.254;10.960;2022-10-16T15:17:34;98549.56;;;18.97;95.11
15884;BME280;8040;50.254;10.960;2022-10-16T15:20:18;98551.88;;;18.95;95.71
15884;BME280;8040;50.254;10.960;2022-10-16T15:23:03;98540.75;;;18.91;96.27
15884;BME280;8040;50.254;10.960;2022-10-16T15:25:48;98546.94;;;18.88;96.89
15884;BME280;8040;50.254;10.960;2022-10-16T15:28:33;98542.16;;;18.85;97.68
15884;BME280;8040;50.254;10.960;2022-10-16T15:31:18;98553.84;;;18.82;98.42
15884;BME280;8040;50.254;10.960;2022-10-16T15:34:03;98549.81;;;18.80;99.18
15884;BME280;8040;50.254;10.960;2022-10-16T15:36:51;98549.03;;;18.79;99.87
15884;BME280;8040;50.254;10.960;2022-10-16T15:39:35;98554.06;;;18.77;100.00
15884;BME280;8040;50.254;10.960;2022-10-16T15:42:19;98555.91;;;18.73;100.00
15884;BME280;8040;50.254;10.960;2022-10-16T15:45:03;98559.00;;;18.72;100.00
15884;BME280;8040;50.254;10.960;2022-10-16T15:47:48;98547.91;;;18.68;100.00
15884;BME280;8040;50.254;10.960;2022-10-16T15:50:32;98547.09;;;18.68;100.00